sensor_id;sensor_type;location;lat;lon;timestamp;P1;durP1;ratioP1;P2;durP2;ratioP2
69542;SDS011;56762;49.494;11.768;2023-07-29T00:00:14;0.10;;;0.00;;
69542;SDS011;56762;49.494;11.768;2023-07-29T00:02:42;1.00;;;0.40;;
69542;SDS011;56762;49.494;11.768;2023-07-29T00:05:10;0.20;;;0.10;;
69542;SDS011;56762;49.494;11.768;2023-07-29T00:07:38;0.47;;;0.20;;
69542;SDS011;56762;49.494;11.768;2023-07-29T00:10:07;0.60;;;0.10;;
69542;SDS011;56762;49.494;11.768;2023-07-29T00:12:36;0.20;;;0.00;;
69542;SDS011;56762;49.494;11.768;2023-07-29T00:15:05;0.52;;;0.30;;
69542;SDS011;56762;49.494;11.768;2023-07-29T00:17:33;0.30;;;0.07;;
69542;SDS011;56762;49.494;11.768;2023-07-29T00:20:01;0.60;;;0.10;;
69542;SDS011;56762;49.494;11.768;2023-07-29T00:22:33;0.20;;;0.10;;
69542;SDS011;56762;49.494;11.768;2023-07-29T00:25:01;0.38;;;0.20;;
69542;SDS011;56762;49.494;11.768;2023-07-29T00:27:29;0.30;;;0.10;;
69542;SDS011;56762;49.494;11.768;2023-07-29T00:29:58;0.20;;;0.10;;
69542;SDS011;56762;49.494;11.768;2023-07-29T00:32:26;0.35;;;0.13;;
69542;SDS011;56762;49.494;11.768;2023-07-29T00:34:56;0.30;;;0.10;;
69542;SDS011;56762;49.494;11.768;2023-07-29T00:37:27;0.30;;;0.00;;
69542;SDS011;56762;49.494;11.768;2023-07-29T00:39:55;0.47;;;0.10;;
69542;SDS011;56762;49.494;11.768;2023-07-29T00:42:23;0.40;;;0.00;;
69542;SDS011;56762;49.494;11.768;2023-07-29T00:44:51;0.60;;;0.15;;
69542;SDS011;56762;49.494;11.768;2023-07-29T00:47:20;0.22;;;0.20;;
69542;SDS011;56762;49.494;11.768;2023-07-29T00:49:50;0.38;;;0.28;;
69542;SDS011;56762;49.494;11.768;2023-07-29T00:52:18;0.10;;;0.03;;
69542;SDS011;56762;49.494;11.768;2023-07-29T00:54:46;1.03;;;0.10;;
69542;SDS011;56762;49.494;11.768;2023-07-29T00:57:14;0.10;;;0.00;;
69542;SDS011;56762;49.494;11.768;2023-07-29T00:59:43;0.20;;;0.10;;
69542;SDS011;56762;49.494;11.768;2023-07-29T01:02:11;0.80;;;0.28;;
69542;SDS011;56762;49.494;11.768;2023-07-29T01:04:41;0.20;;;0.10;;
69542;SDS011;56762;49.494;11.768;2023-07-29T01:07:11;0.60;;;0.30;;
69542;SDS011;56762;49.494;11.768;2023-07-29T01:09:48;0.17;;;0.10;;
69542;SDS011;56762;49.494;11.768;2023-07-29T01:12:24;0.50;;;0.30;;
69542;SDS011;56762;49.494;11.768;2023-07-29T01:14:59;0.30;;;0.10;;
69542;SDS011;56762;49.494;11.768;2023-07-29T01:17:32;0.30;;;0.10;;
69542;SDS011;56762;49.494;11.768;2023-07-29T01:20:06;0.80;;;0.30;;
69542;SDS011;56762;49.494;11.768;2023-07-29T01:22:36;0.30;;;0.10;;
69542;SDS011;56762;49.494;11.768;2023-07-29T01:25:08;0.20;;;0.13;;
69542;SDS011;56762;49.494;11.768;2023-07-29T01:27:36;0.57;;;0.20;;
69542;SDS011;56762;49.494;11.768;2023-07-29T01:30:04;0.70;;;0.20;;
69542;SDS011;56762;49.494;11.768;2023-07-29T01:32:35;0.50;;;0.10;;
69542;SDS011;56762;49.494;11.768;2023-07-29T01:35:10;0.45;;;0.28;;
69542;SDS011;56762;49.494;11.768;2023-07-29T01:37:43;0.32;;;0.20;;
69542;SDS011;56762;49.494;11.768;2023-07-29T01:40:16;0.43;;;0.13;;
69542;SDS011;56762;49.494;11.768;2023-07-29T01:42:46;0.40;;;0.10;;
69542;SDS011;56762;49.494;11.768;2023-07-29T01:45:14;0.37;;;0.10;;
69542;SDS011;56762;49.494;11.768;2023-07-29T01:47:43;0.28;;;0.10;;
69542;SDS011;56762;49.494;11.768;2023-07-29T01:50:11;0.30;;;0.15;;
69542;SDS011;56762;49.494;11.768;2023-07-29T01:52:38;0.63;;;0.20;;
69542;SDS011;56762;49.494;11.768;2023-07-29T01:55:07;0.20;;;0.05;;
69542;SDS011;56762;49.494;11.768;2023-07-29T01:57:36;0.60;;;0.30;;
69542;SDS011;56762;49.494;11.768;2023-07-29T02:00:05;0.47;;;0.15;;
69542;SDS011;56762;49.494;11.768;2023-07-29T02:02:34;0.52;;;0.20;;
69542;SDS011;56762;49.494;11.768;2023-07-29T02:05:03;0.25;;;0.10;;
69542;SDS011;56762;49.494;11.768;2023-07-29T02:07:31;0.20;;;0.13;;
69542;SDS011;56762;49.494;11.768;2023-07-29T02:09:59;0.10;;;0.00;;
69542;SDS011;56762;49.494;11.768;2023-07-29T02:12:26;0.95;;;0.10;;
69542;SDS011;56762;49.494;11.768;2023-07-29T02:14:56;0.40;;;0.15;;
69542;SDS011;56762;49.494;11.768;2023-07-29T02:17:23;0.10;;;0.03;;
69542;SDS011;56762;49.494;11.768;2023-07-29T02:19:52;0.13;;;0.10;;
69542;SDS011;56762;49.494;11.768;2023-07-29T02:22:20;0.10;;;0.03;;
69542;SDS011;56762;49.494;11.768;2023-07-29T02:24:48;0.50;;;0.20;;
69542;SDS011;56762;49.494;11.768;2023-07-29T02:27:16;0.47;;;0.17;;
69542;SDS011;56762;49.494;11.768;2023-07-29T02:29:43;0.30;;;0.20;;
69542;SDS011;56762;49.494;11.768;2023-07-29T02:32:13;0.20;;;0.05;;
69542;SDS011;56762;49.494;11.768;2023-07-29T02:34:40;0.37;;;0.20;;
69542;SDS011;56762;49.494;11.768;2023-07-29T02:37:09;0.50;;;0.10;;
69542;SDS011;56762;49.494;11.768;2023-07-29T02:39:36;0.57;;;0.17;;
69542;SDS011;56762;49.494;11.768;2023-07-29T02:42:04;0.30;;;0.10;;
69542;SDS011;56762;49.494;11.768;2023-07-29T02:44:32;0.20;;;0.10;;
69542;SDS011;56762;49.494;11.768;2023-07-29T02:47:00;1.63;;;0.50;;
69542;SDS011;56762;49.494;11.768;2023-07-29T02:49:29;1.02;;;0.20;;
69542;SDS011;56762;49.494;11.768;2023-07-29T02:51:57;0.30;;;0.20;;
69542;SDS011;56762;49.494;11.768;2023-07-29T02:54:25;0.15;;;0.08;;
69542;SDS011;56762;49.494;11.768;2023-07-29T02:56:53;0.65;;;0.20;;
69542;SDS011;56762;49.494;11.768;2023-07-29T02:59:20;0.33;;;0.20;;
69542;SDS011;56762;49.494;11.768;2023-07-29T03:01:48;0.20;;;0.00;;
69542;SDS011;56762;49.494;11.768;2023-07-29T03:04:16;0.40;;;0.10;;
69542;SDS011;56762;49.494;11.768;2023-07-29T03:06:45;0.20;;;0.05;;
69542;SDS011;56762;49.494;11.768;2023-07-29T03:09:14;0.43;;;0.20;;
69542;SDS011;56762;49.494;11.768;2023-07-29T03:11:42;0.30;;;0.10;;
69542;SDS011;56762;49.494;11.768;2023-07-29T03:14:10;0.13;;;0.10;;
69542;SDS011;56762;49.494;11.768;2023-07-29T03:16:39;0.40;;;0.20;;
69542;SDS011;56762;49.494;11.768;2023-07-29T03:19:06;0.30;;;0.10;;
69542;SDS011;56762;49.494;11.768;2023-07-29T03:21:34;0.28;;;0.10;;
69542;SDS011;56762;49.494;11.768;2023-07-29T03:24:04;0.17;;;0.03;;
69542;SDS011;56762;49.494;11.768;2023-07-29T03:26:33;0.60;;;0.30;;
69542;SDS011;56762;49.494;11.768;2023-07-29T03:29:01;0.17;;;0.10;;
69542;SDS011;56762;49.494;11.768;2023-07-29T03:31:29;0.15;;;0.05;;
69542;SDS011;56762;49.494;11.768;2023-07-29T03:33:57;0.85;;;0.13;;
69542;SDS011;56762;49.494;11.768;2023-07-29T03:36:25;0.30;;;0.20;;
69542;SDS011;56762;49.494;11.768;2023-07-29T03:38:53;0.30;;;0.10;;
69542;SDS011;56762;49.494;11.768;2023-07-29T03:41:22;0.47;;;0.10;;
69542;SDS011;56762;49.494;11.768;2023-07-29T03:43:50;0.85;;;0.40;;
69542;SDS011;56762;49.494;11.768;2023-07-29T03:46:18;0.77;;;0.30;;
69542;SDS011;56762;49.494;11.768;2023-07-29T03:48:48;0.70;;;0.10;;
69542;SDS011;56762;49.494;11.768;2023-07-29T03:51:16;0.30;;;0.10;;
69542;SDS011;56762;49.494;11.768;2023-07-29T03:53:44;0.32;;;0.30;;
69542;SDS011;56762;49.494;11.768;2023-07-29T03:56:12;0.52;;;0.20;;
69542;SDS011;56762;49.494;11.768;2023-07-29T03:58:41;0.28;;;0.10;;
69542;SDS011;56762;49.494;11.768;2023-07-29T04:01:10;0.30;;;0.10;;
69542;SDS011;56762;49.494;11.768;2023-07-29T04:03:38;0.60;;;0.40;;
69542;SDS011;56762;49.494;11.768;2023-07-29T04:06:06;0.50;;;0.30;;
69542;SDS011;56762;49.494;11.768;2023-07-29T04:08:34;0.20;;;0.10;;
69542;SDS011;56762;49.494;11.768;2023-07-29T04:11:02;0.88;;;0.40;;
69542;SDS011;56762;49.494;11.768;2023-07-29T04:13:30;0.53;;;0.30;;
69542;SDS011;56762;49.494;11.768;2023-07-29T04:15:59;0.20;;;0.10;;
69542;SDS011;56762;49.494;11.768;2023-07-29T04:18:27;1.48;;;0.52;;
69542;SDS011;56762;49.494;11.768;2023-07-29T04:20:54;0.45;;;0.30;;
69542;SDS011;56762;49.494;11.768;2023-07-29T04:23:22;0.85;;;0.10;;
69542;SDS011;56762;49.494;11.768;2023-07-29T04:25:50;0.33;;;0.20;;
69542;SDS011;56762;49.494;11.768;2023-07-29T04:28:18;0.30;;;0.28;;
69542;SDS011;56762;49.494;11.768;2023-07-29T04:30:46;0.43;;;0.20;;
69542;SDS011;56762;49.494;11.768;2023-07-29T04:33:15;0.32;;;0.13;;
69542;SDS011;56762;49.494;11.768;2023-07-29T04:35:43;0.40;;;0.20;;
69542;SDS011;56762;49.494;11.768;2023-07-29T04:38:11;0.53;;;0.17;;
69542;SDS011;56762;49.494;11.768;2023-07-29T04:40:38;0.30;;;0.13;;
69542;SDS011;56762;49.494;11.768;2023-07-29T04:43:06;0.30;;;0.10;;
69542;SDS011;56762;49.494;11.768;2023-07-29T04:45:34;1.33;;;0.20;;
69542;SDS011;56762;49.494;11.768;2023-07-29T04:48:02;0.60;;;0.30;;
69542;SDS011;56762;49.494;11.768;2023-07-29T04:50:32;0.23;;;0.10;;
69542;SDS011;56762;49.494;11.768;2023-07-29T04:53:00;0.10;;;0.10;;
69542;SDS011;56762;49.494;11.768;2023-07-29T04:55:27;0.65;;;0.25;;
69542;SDS011;56762;49.494;11.768;2023-07-29T04:57:56;0.30;;;0.10;;
69542;SDS011;56762;49.494;11.768;2023-07-29T05:00:24;0.25;;;0.10;;
69542;SDS011;56762;49.494;11.768;2023-07-29T05:02:51;0.83;;;0.50;;
69542;SDS011;56762;49.494;11.768;2023-07-29T05:05:20;0.85;;;0.40;;
69542;SDS011;56762;49.494;11.768;2023-07-29T05:07:49;1.13;;;0.20;;
69542;SDS011;56762;49.494;11.768;2023-07-29T05:10:17;0.40;;;0.20;;
69542;SDS011;56762;49.494;11.768;2023-07-29T05:12:44;0.47;;;0.20;;
69542;SDS011;56762;49.494;11.768;2023-07-29T05:15:12;0.40;;;0.20;;
69542;SDS011;56762;49.494;11.768;2023-07-29T05:17:40;0.73;;;0.20;;
69542;SDS011;56762;49.494;11.768;2023-07-29T05:20:08;0.82;;;0.20;;
69542;SDS011;56762;49.494;11.768;2023-07-29T05:22:36;1.25;;;0.10;;
69542;SDS011;56762;49.494;11.768;2023-07-29T05:25:07;0.30;;;0.10;;
69542;SDS011;56762;49.494;11.768;2023-07-29T05:27:35;0.45;;;0.10;;
69542;SDS011;56762;49.494;11.768;2023-07-29T05:30:03;0.45;;;0.20;;
69542;SDS011;56762;49.494;11.768;2023-07-29T05:32:32;0.68;;;0.20;;
69542;SDS011;56762;49.494;11.768;2023-07-29T05:35:00;0.85;;;0.20;;
69542;SDS011;56762;49.494;11.768;2023-07-29T05:37:29;1.20;;;0.40;;
69542;SDS011;56762;49.494;11.768;2023-07-29T05:39:58;0.20;;;0.10;;
69542;SDS011;56762;49.494;11.768;2023-07-29T05:42:27;0.40;;;0.10;;
69542;SDS011;56762;49.494;11.768;2023-07-29T05:44:55;0.40;;;0.20;;
69542;SDS011;56762;49.494;11.768;2023-07-29T05:47:23;0.15;;;0.00;;
69542;SDS011;56762;49.494;11.768;2023-07-29T05:49:51;0.50;;;0.30;;
69542;SDS011;56762;49.494;11.768;2023-07-29T05:52:19;1.13;;;0.30;;
69542;SDS011;56762;49.494;11.768;2023-07-29T05:54:47;0.50;;;0.10;;
69542;SDS011;56762;49.494;11.768;2023-07-29T05:57:15;0.17;;;0.03;;
69542;SDS011;56762;49.494;11.768;2023-07-29T05:59:44;0.60;;;0.30;;
69542;SDS011;56762;49.494;11.768;2023-07-29T06:02:12;0.10;;;0.00;;
69542;SDS011;56762;49.494;11.768;2023-07-29T06:04:40;0.50;;;0.20;;
69542;SDS011;56762;49.494;11.768;2023-07-29T06:07:08;0.38;;;0.10;;
69542;SDS011;56762;49.494;11.768;2023-07-29T06:09:36;1.25;;;0.43;;
69542;SDS011;56762;49.494;11.768;2023-07-29T06:12:04;0.50;;;0.30;;
69542;SDS011;56762;49.494;11.768;2023-07-29T06:14:32;0.43;;;0.10;;
69542;SDS011;56762;49.494;11.768;2023-07-29T06:17:01;0.40;;;0.20;;
69542;SDS011;56762;49.494;11.768;2023-07-29T06:19:29;0.50;;;0.35;;
69542;SDS011;56762;49.494;11.768;2023-07-29T06:21:57;0.90;;;0.20;;
69542;SDS011;56762;49.494;11.768;2023-07-29T06:24:26;0.20;;;0.10;;
69542;SDS011;56762;49.494;11.768;2023-07-29T06:26:53;0.60;;;0.20;;
69542;SDS011;56762;49.494;11.768;2023-07-29T06:29:21;1.02;;;0.20;;
69542;SDS011;56762;49.494;11.768;2023-07-29T06:31:49;1.25;;;0.20;;
69542;SDS011;56762;49.494;11.768;2023-07-29T06:34:18;0.38;;;0.20;;
69542;SDS011;56762;49.494;11.768;2023-07-29T06:36:49;0.30;;;0.10;;
69542;SDS011;56762;49.494;11.768;2023-07-29T06:39:16;0.43;;;0.20;;
69542;SDS011;56762;49.494;11.768;2023-07-29T06:41:44;0.75;;;0.20;;
69542;SDS011;56762;49.494;11.768;2023-07-29T06:44:12;0.40;;;0.28;;
69542;SDS011;56762;49.494;11.768;2023-07-29T06:46:40;0.77;;;0.28;;
69542;SDS011;56762;49.494;11.768;2023-07-29T06:49:08;0.88;;;0.22;;
69542;SDS011;56762;49.494;11.768;2023-07-29T06:51:37;0.93;;;0.30;;
69542;SDS011;56762;49.494;11.768;2023-07-29T06:54:05;0.57;;;0.30;;
69542;SDS011;56762;49.494;11.768;2023-07-29T06:56:32;1.05;;;0.40;;
69542;SDS011;56762;49.494;11.768;2023-07-29T06:59:01;1.85;;;0.57;;
69542;SDS011;56762;49.494;11.768;2023-07-29T07:01:28;0.55;;;0.40;;
69542;SDS011;56762;49.494;11.768;2023-07-29T07:03:57;1.00;;;0.50;;
69542;SDS011;56762;49.494;11.768;2023-07-29T07:06:25;0.50;;;0.22;;
69542;SDS011;56762;49.494;11.768;2023-07-29T07:08:54;0.52;;;0.20;;
69542;SDS011;56762;49.494;11.768;2023-07-29T07:11:22;0.50;;;0.22;;
69542;SDS011;56762;49.494;11.768;2023-07-29T07:13:50;0.25;;;0.10;;
69542;SDS011;56762;49.494;11.768;2023-07-29T07:16:17;0.43;;;0.17;;
69542;SDS011;56762;49.494;11.768;2023-07-29T07:18:45;0.73;;;0.30;;
69542;SDS011;56762;49.494;11.768;2023-07-29T07:21:13;0.40;;;0.20;;
69542;SDS011;56762;49.494;11.768;2023-07-29T07:23:41;1.70;;;0.30;;
69542;SDS011;56762;49.494;11.768;2023-07-29T07:26:10;0.40;;;0.30;;
69542;SDS011;56762;49.494;11.768;2023-07-29T07:28:38;0.30;;;0.20;;
69542;SDS011;56762;49.494;11.768;2023-07-29T07:31:06;0.80;;;0.40;;
69542;SDS011;56762;49.494;11.768;2023-07-29T07:33:34;0.60;;;0.17;;
69542;SDS011;56762;49.494;11.768;2023-07-29T07:36:02;1.08;;;0.20;;
69542;SDS011;56762;49.494;11.768;2023-07-29T07:38:30;0.55;;;0.45;;
69542;SDS011;56762;49.494;11.768;2023-07-29T07:40:58;0.40;;;0.20;;
69542;SDS011;56762;49.494;11.768;2023-07-29T07:43:27;0.28;;;0.10;;
69542;SDS011;56762;49.494;11.768;2023-07-29T07:45:58;0.45;;;0.20;;
69542;SDS011;56762;49.494;11.768;2023-07-29T07:48:27;0.57;;;0.20;;
69542;SDS011;56762;49.494;11.768;2023-07-29T07:50:55;0.93;;;0.30;;
69542;SDS011;56762;49.494;11.768;2023-07-29T07:53:23;0.37;;;0.10;;
69542;SDS011;56762;49.494;11.768;2023-07-29T07:55:52;0.52;;;0.20;;
69542;SDS011;56762;49.494;11.768;2023-07-29T07:58:20;0.73;;;0.30;;
69542;SDS011;56762;49.494;11.768;2023-07-29T08:00:49;0.43;;;0.28;;
69542;SDS011;56762;49.494;11.768;2023-07-29T08:03:17;0.82;;;0.20;;
69542;SDS011;56762;49.494;11.768;2023-07-29T08:05:45;0.40;;;0.20;;
69542;SDS011;56762;49.494;11.768;2023-07-29T08:08:13;0.22;;;0.15;;
69542;SDS011;56762;49.494;11.768;2023-07-29T08:10:41;0.20;;;0.10;;
69542;SDS011;56762;49.494;11.768;2023-07-29T08:13:09;0.95;;;0.13;;
69542;SDS011;56762;49.494;11.768;2023-07-29T08:15:36;0.22;;;0.20;;
69542;SDS011;56762;49.494;11.768;2023-07-29T08:18:06;0.13;;;0.03;;
69542;SDS011;56762;49.494;11.768;2023-07-29T08:20:34;0.20;;;0.20;;
69542;SDS011;56762;49.494;11.768;2023-07-29T08:23:02;0.57;;;0.32;;
69542;SDS011;56762;49.494;11.768;2023-07-29T08:25:30;0.50;;;0.05;;
69542;SDS011;56762;49.494;11.768;2023-07-29T08:27:58;1.20;;;0.22;;
69542;SDS011;56762;49.494;11.768;2023-07-29T08:30:26;0.30;;;0.10;;
69542;SDS011;56762;49.494;11.768;2023-07-29T08:32:53;0.43;;;0.03;;
69542;SDS011;56762;49.494;11.768;2023-07-29T08:35:23;0.93;;;0.30;;
69542;SDS011;56762;49.494;11.768;2023-07-29T08:37:51;0.43;;;0.20;;
69542;SDS011;56762;49.494;11.768;2023-07-29T08:40:19;0.43;;;0.10;;
69542;SDS011;56762;49.494;11.768;2023-07-29T08:42:52;0.20;;;0.00;;
69542;SDS011;56762;49.494;11.768;2023-07-29T08:45:24;1.15;;;0.17;;
69542;SDS011;56762;49.494;11.768;2023-07-29T08:47:53;0.68;;;0.25;;
69542;SDS011;56762;49.494;11.768;2023-07-29T08:50:26;0.30;;;0.10;;
69542;SDS011;56762;49.494;11.768;2023-07-29T08:52:54;0.40;;;0.20;;
69542;SDS011;56762;49.494;11.768;2023-07-29T08:55:23;0.63;;;0.10;;
69542;SDS011;56762;49.494;11.768;2023-07-29T08:57:51;0.30;;;0.00;;
69542;SDS011;56762;49.494;11.768;2023-07-29T09:00:20;0.40;;;0.30;;
69542;SDS011;56762;49.494;11.768;2023-07-29T09:02:49;0.32;;;0.20;;
69542;SDS011;56762;49.494;11.768;2023-07-29T09:05:17;0.40;;;0.10;;
69542;SDS011;56762;49.494;11.768;2023-07-29T09:07:46;0.40;;;0.10;;
69542;SDS011;56762;49.494;11.768;2023-07-29T09:10:21;0.30;;;0.20;;
69542;SDS011;56762;49.494;11.768;2023-07-29T09:12:49;0.35;;;0.10;;
69542;SDS011;56762;49.494;11.768;2023-07-29T09:15:26;0.47;;;0.10;;
69542;SDS011;56762;49.494;11.768;2023-07-29T09:17:55;0.73;;;0.10;;
69542;SDS011;56762;49.494;11.768;2023-07-29T09:20:27;1.43;;;0.40;;
69542;SDS011;56762;49.494;11.768;2023-07-29T09:22:57;1.52;;;0.35;;
69542;SDS011;56762;49.494;11.768;2023-07-29T09:25:26;0.20;;;0.10;;
69542;SDS011;56762;49.494;11.768;2023-07-29T09:27:57;0.55;;;0.10;;
69542;SDS011;56762;49.494;11.768;2023-07-29T09:30:27;0.30;;;0.22;;
69542;SDS011;56762;49.494;11.768;2023-07-29T09:32:55;0.20;;;0.10;;
69542;SDS011;56762;49.494;11.768;2023-07-29T09:35:23;0.25;;;0.10;;
69542;SDS011;56762;49.494;11.768;2023-07-29T09:37:53;0.20;;;0.10;;
69542;SDS011;56762;49.494;11.768;2023-07-29T09:40:22;0.20;;;0.00;;
69542;SDS011;56762;49.494;11.768;2023-07-29T09:42:50;0.63;;;0.15;;
69542;SDS011;56762;49.494;11.768;2023-07-29T09:45:21;0.20;;;0.10;;
69542;SDS011;56762;49.494;11.768;2023-07-29T09:47:49;0.28;;;0.10;;
69542;SDS011;56762;49.494;11.768;2023-07-29T09:50:18;0.10;;;0.00;;
69542;SDS011;56762;49.494;11.768;2023-07-29T09:52:45;0.30;;;0.10;;
69542;SDS011;56762;49.494;11.768;2023-07-29T09:55:16;0.20;;;0.10;;
69542;SDS011;56762;49.494;11.768;2023-07-29T09:57:47;0.60;;;0.13;;
69542;SDS011;56762;49.494;11.768;2023-07-29T10:00:15;0.10;;;0.08;;
69542;SDS011;56762;49.494;11.768;2023-07-29T10:02:43;0.32;;;0.10;;
69542;SDS011;56762;49.494;11.768;2023-07-29T10:05:11;0.10;;;0.10;;
69542;SDS011;56762;49.494;11.768;2023-07-29T10:07:39;0.85;;;0.20;;
69542;SDS011;56762;49.494;11.768;2023-07-29T10:10:07;0.97;;;0.10;;
69542;SDS011;56762;49.494;11.768;2023-07-29T10:12:36;0.20;;;0.10;;
69542;SDS011;56762;49.494;11.768;2023-07-29T10:15:05;0.45;;;0.22;;
69542;SDS011;56762;49.494;11.768;2023-07-29T10:17:35;0.65;;;0.00;;
69542;SDS011;56762;49.494;11.768;2023-07-29T10:20:05;0.10;;;0.00;;
69542;SDS011;56762;49.494;11.768;2023-07-29T10:22:36;0.27;;;0.10;;
69542;SDS011;56762;49.494;11.768;2023-07-29T10:25:06;0.17;;;0.00;;
69542;SDS011;56762;49.494;11.768;2023-07-29T10:27:39;0.10;;;0.00;;
69542;SDS011;56762;49.494;11.768;2023-07-29T10:30:12;1.85;;;0.10;;
69542;SDS011;56762;49.494;11.768;2023-07-29T10:32:41;0.22;;;0.03;;
69542;SDS011;56762;49.494;11.768;2023-07-29T10:35:11;0.30;;;0.00;;
69542;SDS011;56762;49.494;11.768;2023-07-29T10:37:40;0.38;;;0.10;;
69542;SDS011;56762;49.494;11.768;2023-07-29T10:40:09;0.20;;;0.00;;
69542;SDS011;56762;49.494;11.768;2023-07-29T10:42:38;0.20;;;0.10;;
69542;SDS011;56762;49.494;11.768;2023-07-29T10:45:29;0.40;;;0.20;;
69542;SDS011;56762;49.494;11.768;2023-07-29T10:48:05;0.27;;;0.10;;
69542;SDS011;56762;49.494;11.768;2023-07-29T10:50:34;0.35;;;0.10;;
69542;SDS011;56762;49.494;11.768;2023-07-29T10:53:02;0.25;;;0.15;;
69542;SDS011;56762;49.494;11.768;2023-07-29T10:55:32;0.82;;;0.20;;
69542;SDS011;56762;49.494;11.768;2023-07-29T10:58:04;0.95;;;0.40;;
69542;SDS011;56762;49.494;11.768;2023-07-29T11:00:40;0.30;;;0.00;;
69542;SDS011;56762;49.494;11.768;2023-07-29T11:03:08;0.10;;;0.05;;
69542;SDS011;56762;49.494;11.768;2023-07-29T11:05:44;0.52;;;0.20;;
69542;SDS011;56762;49.494;11.768;2023-07-29T11:08:20;0.30;;;0.10;;
69542;SDS011;56762;49.494;11.768;2023-07-29T11:10:59;0.40;;;0.30;;
69542;SDS011;56762;49.494;11.768;2023-07-29T11:13:29;1.07;;;0.30;;
69542;SDS011;56762;49.494;11.768;2023-07-29T11:15:59;19.75;;;8.82;;
69542;SDS011;56762;49.494;11.768;2023-07-29T11:18:28;13.02;;;5.38;;
69542;SDS011;56762;49.494;11.768;2023-07-29T11:20:57;7.45;;;4.80;;
69542;SDS011;56762;49.494;11.768;2023-07-29T11:23:29;6.85;;;3.15;;
69542;SDS011;56762;49.494;11.768;2023-07-29T11:25:58;3.73;;;2.03;;
69542;SDS011;56762;49.494;11.768;2023-07-29T11:28:27;2.70;;;1.25;;
69542;SDS011;56762;49.494;11.768;2023-07-29T11:30:56;3.72;;;0.82;;
69542;SDS011;56762;49.494;11.768;2023-07-29T11:33:26;0.95;;;0.52;;
69542;SDS011;56762;49.494;11.768;2023-07-29T11:35:55;1.70;;;1.13;;
69542;SDS011;56762;49.494;11.768;2023-07-29T11:38:23;2.10;;;0.73;;
69542;SDS011;56762;49.494;11.768;2023-07-29T11:40:55;4.25;;;1.50;;
69542;SDS011;56762;49.494;11.768;2023-07-29T11:43:24;3.08;;;0.82;;
69542;SDS011;56762;49.494;11.768;2023-07-29T11:45:54;0.68;;;0.30;;
69542;SDS011;56762;49.494;11.768;2023-07-29T11:48:31;2.08;;;0.73;;
69542;SDS011;56762;49.494;11.768;2023-07-29T11:51:00;0.70;;;0.30;;
69542;SDS011;56762;49.494;11.768;2023-07-29T11:53:29;1.77;;;1.08;;
69542;SDS011;56762;49.494;11.768;2023-07-29T11:55:58;0.65;;;0.35;;
69542;SDS011;56762;49.494;11.768;2023-07-29T11:58:26;0.52;;;0.10;;
69542;SDS011;56762;49.494;11.768;2023-07-29T12:00:55;0.75;;;0.38;;
69542;SDS011;56762;49.494;11.768;2023-07-29T12:03:23;0.50;;;0.30;;
69542;SDS011;56762;49.494;11.768;2023-07-29T12:05:53;1.48;;;0.50;;
69542;SDS011;56762;49.494;11.768;2023-07-29T12:08:22;1.13;;;0.40;;
69542;SDS011;56762;49.494;11.768;2023-07-29T12:10:49;0.93;;;0.40;;
69542;SDS011;56762;49.494;11.768;2023-07-29T12:13:18;1.65;;;0.65;;
69542;SDS011;56762;49.494;11.768;2023-07-29T12:15:45;1.13;;;0.40;;
69542;SDS011;56762;49.494;11.768;2023-07-29T12:18:14;1.25;;;0.60;;
69542;SDS011;56762;49.494;11.768;2023-07-29T12:20:42;2.05;;;0.50;;
69542;SDS011;56762;49.494;11.768;2023-07-29T12:23:12;1.52;;;0.50;;
69542;SDS011;56762;49.494;11.768;2023-07-29T12:25:43;3.50;;;0.30;;
69542;SDS011;56762;49.494;11.768;2023-07-29T12:28:11;0.63;;;0.23;;
69542;SDS011;56762;49.494;11.768;2023-07-29T12:30:41;1.25;;;0.47;;
69542;SDS011;56762;49.494;11.768;2023-07-29T12:33:09;0.90;;;0.17;;
69542;SDS011;56762;49.494;11.768;2023-07-29T12:35:55;1.23;;;0.47;;
69542;SDS011;56762;49.494;11.768;2023-07-29T12:38:26;1.33;;;0.52;;
69542;SDS011;56762;49.494;11.768;2023-07-29T12:40:54;1.30;;;0.37;;
69542;SDS011;56762;49.494;11.768;2023-07-29T12:43:23;1.23;;;0.55;;
69542;SDS011;56762;49.494;11.768;2023-07-29T12:45:52;0.90;;;0.32;;
69542;SDS011;56762;49.494;11.768;2023-07-29T12:48:20;1.02;;;0.65;;
69542;SDS011;56762;49.494;11.768;2023-07-29T12:50:50;0.73;;;0.40;;
69542;SDS011;56762;49.494;11.768;2023-07-29T12:53:18;0.70;;;0.30;;
69542;SDS011;56762;49.494;11.768;2023-07-29T12:55:48;1.23;;;0.50;;
69542;SDS011;56762;49.494;11.768;2023-07-29T12:58:15;0.50;;;0.45;;
69542;SDS011;56762;49.494;11.768;2023-07-29T13:00:44;0.45;;;0.20;;
69542;SDS011;56762;49.494;11.768;2023-07-29T13:03:12;0.77;;;0.30;;
69542;SDS011;56762;49.494;11.768;2023-07-29T13:05:40;0.70;;;0.20;;
69542;SDS011;56762;49.494;11.768;2023-07-29T13:08:08;1.02;;;0.30;;
69542;SDS011;56762;49.494;11.768;2023-07-29T13:10:37;0.57;;;0.30;;
69542;SDS011;56762;49.494;11.768;2023-07-29T13:13:07;1.58;;;0.20;;
69542;SDS011;56762;49.494;11.768;2023-07-29T13:15:36;0.93;;;0.30;;
69542;SDS011;56762;49.494;11.768;2023-07-29T13:18:04;0.80;;;0.57;;
69542;SDS011;56762;49.494;11.768;2023-07-29T13:20:32;0.65;;;0.20;;
69542;SDS011;56762;49.494;11.768;2023-07-29T13:23:00;1.10;;;0.50;;
69542;SDS011;56762;49.494;11.768;2023-07-29T13:25:28;1.27;;;0.17;;
69542;SDS011;56762;49.494;11.768;2023-07-29T13:27:55;1.02;;;0.40;;
69542;SDS011;56762;49.494;11.768;2023-07-29T13:30:25;1.23;;;0.20;;
69542;SDS011;56762;49.494;11.768;2023-07-29T13:32:53;0.30;;;0.10;;
69542;SDS011;56762;49.494;11.768;2023-07-29T13:35:20;1.50;;;0.40;;
69542;SDS011;56762;49.494;11.768;2023-07-29T13:37:49;0.95;;;0.20;;
69542;SDS011;56762;49.494;11.768;2023-07-29T13:40:16;0.65;;;0.20;;
69542;SDS011;56762;49.494;11.768;2023-07-29T13:42:44;0.40;;;0.10;;
69542;SDS011;56762;49.494;11.768;2023-07-29T13:45:12;0.28;;;0.10;;
69542;SDS011;56762;49.494;11.768;2023-07-29T13:47:41;0.70;;;0.30;;
69542;SDS011;56762;49.494;11.768;2023-07-29T13:50:09;1.25;;;0.50;;
69542;SDS011;56762;49.494;11.768;2023-07-29T13:52:38;1.13;;;0.63;;
69542;SDS011;56762;49.494;11.768;2023-07-29T13:55:06;1.60;;;0.70;;
69542;SDS011;56762;49.494;11.768;2023-07-29T13:57:34;1.45;;;0.63;;
69542;SDS011;56762;49.494;11.768;2023-07-29T14:00:02;1.75;;;0.68;;
69542;SDS011;56762;49.494;11.768;2023-07-29T14:02:31;1.27;;;0.57;;
69542;SDS011;56762;49.494;11.768;2023-07-29T14:05:00;1.13;;;0.30;;
69542;SDS011;56762;49.494;11.768;2023-07-29T14:07:29;0.77;;;0.40;;
69542;SDS011;56762;49.494;11.768;2023-07-29T14:09:57;0.68;;;0.30;;
69542;SDS011;56762;49.494;11.768;2023-07-29T14:12:27;0.98;;;0.38;;
69542;SDS011;56762;49.494;11.768;2023-07-29T14:14:55;0.63;;;0.28;;
69542;SDS011;56762;49.494;11.768;2023-07-29T14:17:22;0.60;;;0.30;;
69542;SDS011;56762;49.494;11.768;2023-07-29T14:19:51;0.60;;;0.10;;
69542;SDS011;56762;49.494;11.768;2023-07-29T14:22:20;1.25;;;0.50;;
69542;SDS011;56762;49.494;11.768;2023-07-29T14:24:47;0.52;;;0.20;;
69542;SDS011;56762;49.494;11.768;2023-07-29T14:27:16;0.45;;;0.20;;
69542;SDS011;56762;49.494;11.768;2023-07-29T14:29:43;0.32;;;0.10;;
69542;SDS011;56762;49.494;11.768;2023-07-29T14:32:11;0.33;;;0.10;;
69542;SDS011;56762;49.494;11.768;2023-07-29T14:34:39;0.82;;;0.20;;
69542;SDS011;56762;49.494;11.768;2023-07-29T14:37:07;0.47;;;0.20;;
69542;SDS011;56762;49.494;11.768;2023-07-29T14:39:36;0.20;;;0.10;;
69542;SDS011;56762;49.494;11.768;2023-07-29T14:42:04;0.43;;;0.10;;